Time;durP1;ratioP1;P1;durP2;ratioP2;P2;SDS_P1;SDS_P2;PMS_P1;PMS_P2;Temp;Humidity;BMP_temperature;BMP_pressure;BME280_temperature;BME280_humidity;BME280_pressure;Samples;Min_cycle;Max_cycle;Signal;HPM_P1;HPM_P2
2021/05/05 00:02:41;;;;;;;1.30;1.30;;;;;;;1.87;100.00;98834.22;5054223;28;20048;-76
2021/05/05 00:05:45;;;;;;;1.20;1.20;;;;;;;1.92;100.00;98835.63;5054493;28;20398;-76
2021/05/05 00:08:48;;;;;;;1.15;1.15;;;;;;;1.96;100.00;98841.78;5053954;28;20060;-76
2021/05/05 00:11:52;;;;;;;1.30;1.30;;;;;;;2.01;100.00;98832.97;5054868;28;20047;-76
2021/05/05 00:14:56;;;;;;;0.95;0.95;;;;;;;2.06;100.00;98835.91;5054711;28;20060;-76
2021/05/05 00:17:59;;;;;;;1.00;1.00;;;;;;;2.10;100.00;98835.81;5053664;28;20055;-76
2021/05/05 00:21:04;;;;;;;0.80;0.80;;;;;;;2.15;100.00;98840.72;5054381;28;20063;-77
2021/05/05 00:24:08;;;;;;;0.95;0.95;;;;;;;2.19;100.00;98846.88;5054269;28;20048;-76
2021/05/05 00:27:12;;;;;;;1.10;1.10;;;;;;;2.25;100.00;98853.34;5053748;28;20044;-76
2021/05/05 00:30:16;;;;;;;1.10;1.10;;;;;;;2.32;100.00;98853.09;5053787;28;20413;-76
2021/05/05 00:33:19;;;;;;;0.93;0.93;;;;;;;2.36;100.00;98859.22;5053565;28;20052;-76
2021/05/05 00:36:23;;;;;;;0.90;0.90;;;;;;;2.42;100.00;98862.19;5053354;28;20385;-76
2021/05/05 00:39:26;;;;;;;1.10;1.10;;;;;;;2.47;100.00;98867.88;5053681;28;20052;-76
2021/05/05 00:42:30;;;;;;;0.70;0.70;;;;;;;2.50;100.00;98856.00;5053938;28;20051;-77
2021/05/05 00:45:35;;;;;;;1.00;1.00;;;;;;;2.53;100.00;98846.91;5054295;28;20039;-76
2021/05/05 00:48:39;;;;;;;0.95;0.95;;;;;;;2.49;100.00;98840.72;5053834;28;20043;-76
2021/05/05 00:51:43;;;;;;;0.90;0.90;;;;;;;2.45;100.00;98834.59;5053209;28;20052;-76
2021/05/05 00:54:47;;;;;;;1.00;1.00;;;;;;;2.37;100.00;98836.06;5033212;28;20446;-76
2021/05/05 00:57:51;;;;;;;1.00;1.00;;;;;;;2.32;100.00;98831.13;5032737;28;20076;-77
2021/05/05 01:00:56;;;;;;;1.00;1.00;;;;;;;2.28;100.00;98838.72;5033133;28;20505;-77
2021/05/05 01:04:00;;;;;;;1.10;1.10;;;;;;;2.30;100.00;98844.53;5033172;28;20509;-77
2021/05/05 01:07:04;;;;;;;1.10;1.10;;;;;;;2.36;100.00;98848.25;5033782;28;20044;-77
2021/05/05 01:10:12;;;;;;;1.20;1.20;;;;;;;2.42;100.00;98854.72;5034871;28;20048;-77
2021/05/05 01:13:16;;;;;;;0.90;0.90;;;;;;;2.49;100.00;98851.72;5039723;28;20056;-77
2021/05/05 01:16:21;;;;;;;1.00;1.00;;;;;;;2.50;100.00;98841.50;5033745;28;20060;-77
2021/05/05 01:19:24;;;;;;;0.90;0.90;;;;;;;2.51;100.00;98854.81;5033089;28;20672;-77
2021/05/05 01:22:28;;;;;;;1.00;1.00;;;;;;;2.54;100.00;98858.63;5033152;28;20048;-77
2021/05/05 01:25:32;;;;;;;1.10;1.10;;;;;;;2.55;100.00;98852.72;5033538;28;20056;-78
2021/05/05 01:28:41;;;;;;;1.00;1.00;;;;;;;2.60;100.00;98846.63;5032606;28;20052;-78
2021/05/05 01:31:45;;;;;;;1.13;1.13;;;;;;;2.63;100.00;98845.75;5033234;28;20425;-78
2021/05/05 01:34:48;;;;;;;0.82;0.82;;;;;;;2.65;100.00;98848.81;5032423;28;20056;-78
2021/05/05 01:37:53;;;;;;;1.00;1.00;;;;;;;2.68;100.00;98847.94;5032643;28;20057;-78
2021/05/05 01:40:56;;;;;;;0.80;0.80;;;;;;;2.72;100.00;98856.81;5032943;28;20068;-78
2021/05/05 01:43:59;;;;;;;0.90;0.90;;;;;;;2.79;100.00;98859.31;5031862;28;20052;-78
2021/05/05 01:47:07;;;;;;;0.80;0.80;;;;;;;2.84;100.00;98855.97;5032003;28;20064;-78
2021/05/05 01:50:11;;;;;;;0.80;0.80;;;;;;;2.88;100.00;98856.59;5033216;28;20048;-77
2021/05/05 01:53:16;;;;;;;0.50;0.50;;;;;;;2.90;100.00;98865.16;5043395;28;20048;-78
2021/05/05 01:56:20;;;;;;;1.00;1.00;;;;;;;2.92;100.00;98865.50;5051661;28;20523;-77
2021/05/05 01:59:23;;;;;;;1.20;1.20;;;;;;;2.95;100.00;98870.09;5051894;28;20052;-78
2021/05/05 02:02:30;;;;;;;0.80;0.80;;;;;;;2.98;100.00;98871.97;5052545;28;20055;-78
2021/05/05 02:05:34;;;;;;;1.08;1.08;;;;;;;2.98;100.00;98871.97;5052814;28;20516;-77
2021/05/05 02:08:37;;;;;;;1.00;1.00;;;;;;;2.99;100.00;98872.72;5053298;28;20064;-78
2021/05/05 02:11:41;;;;;;;0.90;0.90;;;;;;;2.98;100.00;98871.97;5054636;28;20044;-78
2021/05/05 02:14:47;;;;;;;0.70;0.70;;;;;;;2.98;100.00;98869.22;5052926;28;20063;-78
2021/05/05 02:17:51;;;;;;;0.80;0.80;;;;;;;2.99;100.00;98873.47;5052472;28;20048;-78
2021/05/05 02:20:55;;;;;;;0.68;0.68;;;;;;;2.92;100.00;98873.72;5052024;28;20051;-78
2021/05/05 02:23:58;;;;;;;1.00;1.00;;;;;;;2.81;100.00;98872.59;5052238;28;20397;-78
2021/05/05 02:27:01;;;;;;;0.75;0.75;;;;;;;2.71;100.00;98874.50;5051476;28;20060;-78
2021/05/05 02:30:07;;;;;;;1.00;1.00;;;;;;;2.61;100.00;98881.16;5052457;28;20060;-78
2021/05/05 02:33:11;;;;;;;0.70;0.70;;;;;;;2.44;100.00;98882.53;5051458;28;20052;-78
2021/05/05 02:36:15;;;;;;;0.85;0.85;;;;;;;2.37;100.00;98882.00;5052137;28;20048;-77
2021/05/05 02:39:20;;;;;;;1.00;1.00;;;;;;;2.36;100.00;98886.72;5052198;28;20044;-78
2021/05/05 02:42:23;;;;;;;0.80;0.80;;;;;;;2.40;100.00;98890.13;5051424;28;20413;-77
2021/05/05 02:45:27;;;;;;;1.10;1.10;;;;;;;2.42;100.00;98892.41;5052526;28;20052;-78
2021/05/05 02:48:30;;;;;;;0.80;0.80;;;;;;;2.44;100.00;98896.28;5052102;28;20059;-77
2021/05/05 02:51:34;;;;;;;0.82;0.82;;;;;;;2.46;100.00;98888.34;5051601;28;20052;-78
2021/05/05 02:54:38;;;;;;;0.95;0.95;;;;;;;2.49;100.00;98890.19;5032375;28;20052;-78
2021/05/05 02:57:41;;;;;;;0.90;0.90;;;;;;;2.52;100.00;98896.78;5033636;28;20048;-78
2021/05/05 03:00:45;;;;;;;1.17;1.17;;;;;;;2.52;100.00;98891.28;5036060;28;20505;-78
2021/05/05 03:03:48;;;;;;;0.90;0.90;;;;;;;2.55;100.00;98893.94;5035243;28;20048;-78
2021/05/05 03:06:56;;;;;;;1.10;1.10;;;;;;;2.57;100.00;98902.50;5058262;28;20095;-78
2021/05/05 03:10:00;;;;;;;0.80;0.80;;;;;;;2.60;100.00;98901.59;5035916;28;20044;-78
2021/05/05 03:13:03;;;;;;;1.00;1.00;;;;;;;2.60;100.00;98901.59;5035648;28;20060;-78
2021/05/05 03:16:07;;;;;;;0.80;0.80;;;;;;;2.60;100.00;98892.59;5036006;28;20056;-78
2021/05/05 03:19:11;;;;;;;0.75;0.75;;;;;;;2.62;100.00;98904.66;5034878;28;20501;-78
2021/05/05 03:22:14;;;;;;;1.10;1.10;;;;;;;2.67;100.00;98906.06;5035806;28;20048;-77
2021/05/05 03:25:17;;;;;;;0.90;0.90;;;;;;;2.69;100.00;98898.16;5034867;28;20048;-78
2021/05/05 03:28:20;;;;;;;1.08;1.08;;;;;;;2.68;100.00;98904.88;5035155;28;20049;-77
2021/05/05 03:31:24;;;;;;;0.85;0.85;;;;;;;2.70;100.00;98903.22;5035559;28;20394;-78
2021/05/05 03:34:27;;;;;;;0.95;0.95;;;;;;;2.70;100.00;98899.69;5035377;28;20136;-77
2021/05/05 03:37:31;;;;;;;1.02;1.02;;;;;;;2.70;100.00;98900.47;5035456;28;20398;-78
2021/05/05 03:40:35;;;;;;;0.82;0.82;;;;;;;2.70;100.00;98900.47;5035554;28;20386;-78
2021/05/05 03:43:39;;;;;;;1.10;1.10;;;;;;;2.70;100.00;98899.69;5034371;28;20497;-78
2021/05/05 03:46:42;;;;;;;1.00;1.00;;;;;;;2.69;100.00;98904.41;5035338;28;20048;-78
2021/05/05 03:49:45;;;;;;;1.00;1.00;;;;;;;2.68;100.00;98900.16;5034402;28;20052;-78
2021/05/05 03:52:49;;;;;;;0.90;0.90;;;;;;;2.69;100.00;98903.63;5042322;28;20040;-78
2021/05/05 03:55:52;;;;;;;0.93;0.93;;;;;;;2.69;100.00;98915.41;5055172;28;20052;-78
2021/05/05 03:58:55;;;;;;;0.90;0.90;;;;;;;2.68;100.00;98915.88;5054593;28;20382;-78
2021/05/05 04:01:58;;;;;;;1.00;1.00;;;;;;;2.68;100.00;98922.13;5055023;28;20056;-78
2021/05/05 04:05:25;;;;;;;1.00;1.00;;;;;;;2.67;100.00;98917.84;5053838;28;20047;-78
2021/05/05 04:08:28;;;;;;;1.00;1.00;;;;;;;2.69;100.00;98925.63;5054297;28;20048;-78
2021/05/05 04:11:31;;;;;;;1.00;1.00;;;;;;;2.67;100.00;98923.34;5054978;28;20044;-79
2021/05/05 04:14:34;;;;;;;1.00;1.00;;;;;;;2.64;100.00;98923.47;5053816;28;20052;-78
2021/05/05 04:17:38;;;;;;;1.10;1.10;;;;;;;2.63;100.00;98922.69;5054356;28;20453;-78
2021/05/05 04:20:42;;;;;;;0.63;0.63;;;;;;;2.64;100.00;98924.22;5054613;28;20048;-78
2021/05/05 04:23:46;;;;;;;0.90;0.90;;;;;;;2.61;100.00;98922.38;5054346;28;20088;-78
2021/05/05 04:26:51;;;;;;;1.08;1.08;;;;;;;2.49;100.00;98928.66;5053690;28;20056;-78
2021/05/05 04:29:54;;;;;;;1.10;1.10;;;;;;;2.33;100.00;98931.56;5053907;28;20048;-78
2021/05/05 04:32:58;;;;;;;0.93;0.93;;;;;;;2.16;100.00;98938.41;5053216;28;20056;-78
2021/05/05 04:36:01;;;;;;;0.77;0.77;;;;;;;2.03;100.00;98934.91;5054175;28;20068;-78
2021/05/05 04:39:05;;;;;;;1.20;1.20;;;;;;;2.01;100.00;98943.59;5053146;28;20390;-77
2021/05/05 04:42:10;;;;;;;0.98;0.98;;;;;;;2.01;100.00;98945.56;5053278;28;20051;-77
2021/05/05 04:45:14;;;;;;;0.95;0.95;;;;;;;2.04;100.00;98941.91;5054766;28;20052;-78
2021/05/05 04:48:18;;;;;;;0.93;0.93;;;;;;;2.09;100.00;98944.13;5054234;28;20121;-77
2021/05/05 04:51:22;;;;;;;0.80;0.80;;;;;;;2.15;100.00;98948.63;5055313;28;20052;-77
2021/05/05 04:54:25;;;;;;;0.82;0.82;;;;;;;2.18;100.00;98949.72;5035262;28;20506;-78
2021/05/05 04:57:28;;;;;;;0.93;0.93;;;;;;;2.23;100.00;98951.91;5033846;28;20052;-77
2021/05/05 05:00:33;;;;;;;0.90;0.90;;;;;;;2.25;100.00;98955.00;5033228;28;20064;-78
2021/05/05 05:03:37;;;;;;;0.95;0.95;;;;;;;2.20;100.00;98958.28;5033608;28;20048;-77
2021/05/05 05:06:40;;;;;;;0.60;0.60;;;;;;;2.22;100.00;98958.59;5033942;28;20044;-78
2021/05/05 05:09:43;;;;;;;0.60;0.60;;;;;;;2.28;100.00;98959.59;5032569;28;20059;-78
2021/05/05 05:12:47;;;;;;;0.93;0.93;;;;;;;2.31;100.00;98961.47;5033260;28;20048;-77
2021/05/05 05:15:50;;;;;;;0.63;0.63;;;;;;;2.32;100.00;98967.72;5033645;28;20060;-78
2021/05/05 05:18:53;;;;;;;1.00;1.00;;;;;;;2.35;100.00;98973.09;5031537;28;20422;-77
2021/05/05 05:21:58;;;;;;;0.90;0.90;;;;;;;2.32;100.00;98973.97;5032798;28;20045;-78
2021/05/05 05:25:09;;;;;;;0.95;0.95;;;;;;;2.28;100.00;98970.56;5032752;28;20048;-77
2021/05/05 05:28:12;;;;;;;0.80;0.80;;;;;;;2.26;100.00;98971.03;5033369;28;20112;-77
2021/05/05 05:31:15;;;;;;;1.10;1.10;;;;;;;2.28;100.00;98978.81;5032874;28;20517;-77
2021/05/05 05:34:18;;;;;;;1.00;1.00;;;;;;;2.34;100.00;98993.53;5033164;28;20060;-77
2021/05/05 05:37:22;;;;;;;1.10;1.10;;;;;;;2.44;100.00;98992.44;5054987;28;20052;-77
2021/05/05 05:40:25;;;;;;;0.90;0.90;;;;;;;2.49;100.00;98991.84;5033156;28;20529;-77
2021/05/05 05:43:29;;;;;;;0.55;0.55;;;;;;;2.45;100.00;98987.72;5033247;28;20048;-77
2021/05/05 05:46:32;;;;;;;0.95;0.95;;;;;;;2.34;100.00;98987.28;5032425;28;20052;-76
2021/05/05 05:49:35;;;;;;;0.90;0.90;;;;;;;2.24;100.00;98991.88;5032359;28;20036;-75
2021/05/05 05:52:39;;;;;;;0.90;0.90;;;;;;;2.26;100.00;98997.72;5039185;28;20044;-79
2021/05/05 05:55:44;;;;;;;0.98;0.98;;;;;;;2.30;100.00;98995.63;5052187;28;20064;-77
2021/05/05 05:58:47;;;;;;;1.10;1.10;;;;;;;2.25;100.00;99002.44;5051659;28;20044;-77
2021/05/05 06:01:50;;;;;;;0.75;0.75;;;;;;;2.27;100.00;99010.25;5053025;28;20044;-80
2021/05/05 06:04:54;;;;;;;0.90;0.90;;;;;;;2.27;100.00;99013.00;5050846;28;20464;-80
2021/05/05 06:07:57;;;;;;;1.00;1.00;;;;;;;2.28;100.00;99015.28;5052565;28;20059;-79
2021/05/05 06:11:01;;;;;;;0.95;0.95;;;;;;;2.25;100.00;99007.16;5052311;28;20492;-79
2021/05/05 06:14:05;;;;;;;0.98;0.98;;;;;;;2.22;100.00;99008.81;5051986;28;20056;-81
2021/05/05 06:17:08;;;;;;;0.80;0.80;;;;;;;2.24;100.00;99011.13;5052882;28;20048;-78
2021/05/05 06:20:12;;;;;;;0.60;0.60;;;;;;;2.28;100.00;99011.78;5052215;28;20043;-77
2021/05/05 06:23:15;;;;;;;0.80;0.80;;;;;;;2.35;100.00;99011.56;5054988;28;20528;-77
2021/05/05 06:26:20;;;;;;;1.00;1.00;;;;;;;2.51;100.00;99024.41;5053709;28;20048;-79
2021/05/05 06:29:24;;;;;;;1.00;1.00;;;;;;;2.67;100.00;99033.28;5052880;28;20048;-77
2021/05/05 06:32:27;;;;;;;0.60;0.60;;;;;;;2.92;100.00;99022.22;5056281;28;20048;-78
2021/05/05 06:35:31;;;;;;;0.90;0.90;;;;;;;3.08;100.00;99018.56;5056898;28;20385;-78
2021/05/05 06:38:35;;;;;;;0.80;0.80;;;;;;;3.14;100.00;99032.53;5057337;28;20044;-78
2021/05/05 06:41:39;;;;;;;0.98;0.98;;;;;;;3.25;100.00;99027.41;5057371;28;20052;-80
2021/05/05 06:44:43;;;;;;;0.90;0.90;;;;;;;3.20;100.00;99019.72;5056627;28;20044;-81
2021/05/05 06:47:47;;;;;;;0.75;0.75;;;;;;;3.16;100.00;99030.09;5056014;28;20040;-79
2021/05/05 06:50:50;;;;;;;1.00;1.00;;;;;;;3.18;100.00;99036.69;5056208;28;20048;-79
2021/05/05 06:53:54;;;;;;;0.82;0.82;;;;;;;3.27;100.00;99030.50;5055874;28;20500;-80
2021/05/05 06:56:57;;;;;;;0.80;0.80;;;;;;;3.46;100.00;99037.66;5056404;28;20389;-78
2021/05/05 07:00:01;;;;;;;0.80;0.80;;;;;;;3.74;100.00;99037.41;5055735;28;20051;-80
2021/05/05 07:03:04;;;;;;;0.77;0.77;;;;;;;4.02;100.00;99032.84;5056474;28;20052;-79
2021/05/05 07:06:08;;;;;;;0.70;0.70;;;;;;;4.20;100.00;99035.66;5056276;28;20052;-79
2021/05/05 07:09:11;;;;;;;0.65;0.65;;;;;;;4.32;100.00;99048.59;5057103;28;20115;-79
2021/05/05 07:12:14;;;;;;;0.65;0.65;;;;;;;4.40;100.00;99049.06;5056429;28;20511;-79
2021/05/05 07:15:17;;;;;;;0.70;0.70;;;;;;;4.43;100.00;99059.97;5056452;28;20060;-79
2021/05/05 07:18:21;;;;;;;0.68;0.68;;;;;;;4.44;100.00;99055.97;5056370;28;20056;-78
2021/05/05 07:21:25;;;;;;;0.90;0.90;;;;;;;4.49;100.00;99062.91;5055476;28;20040;-78
2021/05/05 07:24:28;;;;;;;0.85;0.85;;;;;;;4.55;100.00;99072.88;5055534;28;20064;-79
2021/05/05 07:27:32;;;;;;;0.70;0.70;;;;;;;4.57;100.00;99064.91;5052990;28;20424;-78
2021/05/05 07:30:36;;;;;;;0.90;0.90;;;;;;;4.51;100.00;99074.22;5052936;28;20044;-79
2021/05/05 07:33:39;;;;;;;0.70;0.70;;;;;;;4.55;100.00;99064.59;5035653;28;20405;-78
2021/05/05 07:36:48;;;;;;;0.80;0.80;;;;;;;4.58;100.00;99065.69;5035608;28;20402;-79
2021/05/05 07:46:20;;;;;;;0.68;0.68;;;;;;;4.55;100.00;99078.38;5035731;28;20052;-78
2021/05/05 07:49:24;;;;;;;0.70;0.70;;;;;;;4.57;100.00;99075.94;5035342;28;20391;-76
2021/05/05 07:52:28;;;;;;;0.57;0.57;;;;;;;4.59;100.00;99075.50;5034927;28;20048;-77
2021/05/05 07:55:32;;;;;;;0.65;0.65;;;;;;;4.68;100.00;99080.28;5035675;28;20049;-77
2021/05/05 07:58:36;;;;;;;0.70;0.70;;;;;;;4.71;100.00;99084.88;5034892;28;20052;-77
2021/05/05 08:01:40;;;;;;;0.70;0.70;;;;;;;4.75;100.00;99080.75;5036405;28;20417;-77
2021/05/05 08:04:50;;;;;;;0.70;0.70;;;;;;;4.80;100.00;99087.69;5035830;28;20477;-76
2021/05/05 08:07:54;;;;;;;0.70;0.70;;;;;;;4.86;100.00;99086.63;5035207;28;20049;-77
2021/05/05 08:10:57;;;;;;;0.52;0.52;;;;;;;4.90;100.00;99076.22;5035470;28;20048;-77
2021/05/05 08:14:01;;;;;;;0.75;0.75;;;;;;;4.97;100.00;99086.97;5034606;28;20053;-76
2021/05/05 08:17:07;;;;;;;0.70;0.70;;;;;;;5.02;100.00;99077.31;5036235;28;20052;-75
2021/05/05 08:20:16;;;;;;;0.63;0.63;;;;;;;5.14;100.00;99079.16;5036087;28;20097;-76
2021/05/05 08:23:20;;;;;;;0.47;0.47;;;;;;;5.32;100.00;99090.25;5033869;28;20044;-75
2021/05/05 08:26:24;;;;;;;0.70;0.70;;;;;;;5.59;100.00;99086.75;5034744;28;20056;-75
2021/05/05 08:29:28;;;;;;;0.68;0.68;;;;;;;5.97;100.00;99076.00;5034167;28;20041;-76
2021/05/05 08:32:32;;;;;;;0.50;0.50;;;;;;;6.19;100.00;99084.84;5033903;28;20045;-74
2021/05/05 08:35:37;;;;;;;0.52;0.52;;;;;;;6.42;100.00;99073.09;5034890;28;20056;-75
2021/05/05 08:38:40;;;;;;;0.40;0.40;;;;;;;6.71;100.00;99086.38;5034324;28;20044;-75
2021/05/05 08:41:44;;;;;;;0.68;0.68;;;;;;;6.95;100.00;99078.09;5033814;28;20064;-75
2021/05/05 08:44:49;;;;;;;1.42;0.77;;;;;;;7.17;100.00;99084.13;5034471;28;20044;-75
2021/05/05 08:47:55;;;;;;;0.40;0.40;;;;;;;7.35;100.00;99082.00;5034522;28;20041;-75
2021/05/05 08:51:00;;;;;;;0.30;0.30;;;;;;;7.43;100.00;99082.38;5033526;28;20068;-76
2021/05/05 08:54:07;;;;;;;0.50;0.50;;;;;;;7.84;100.00;99091.78;5033332;28;20390;-75
2021/05/05 08:57:10;;;;;;;0.40;0.40;;;;;;;8.19;100.00;99084.31;5034241;28;20099;-73
2021/05/05 09:00:18;;;;;;;0.40;0.40;;;;;;;8.48;100.00;99089.91;5034164;28;20048;-73
2021/05/05 09:03:32;;;;;;;0.30;0.30;;;;;;;8.67;100.00;99099.56;5033611;28;20055;-75
2021/05/05 09:06:51;;;;;;;0.20;0.20;;;;;;;8.63;100.00;99107.31;5034347;28;20049;-75
2021/05/05 09:10:00;;;;;;;0.20;0.20;;;;;;;8.70;100.00;99097.81;5033983;28;20056;-75
2021/05/05 09:13:03;;;;;;;0.20;0.20;;;;;;;8.65;100.00;99099.25;5033982;28;20044;-75
2021/05/05 09:16:09;;;;;;;0.10;0.10;;;;;;;8.52;100.00;99106.34;5034069;28;20076;-75
2021/05/05 09:19:12;;;;;;;0.13;0.13;;;;;;;8.42;100.00;99102.94;5033811;28;20505;-75
2021/05/05 09:22:44;;;;;;;0.22;0.22;;;;;;;8.30;100.00;99109.53;5033771;28;20052;-75
2021/05/05 09:25:51;;;;;;;0.10;0.10;;;;;;;8.09;100.00;99108.63;5032734;28;20064;-75
2021/05/05 09:28:54;;;;;;;0.38;0.38;;;;;;;7.87;100.00;99124.06;5033574;28;20049;-76
2021/05/05 09:31:58;;;;;;;0.17;0.17;;;;;;;7.62;100.00;99120.56;5033794;28;20516;-75
2021/05/05 09:35:05;;;;;;;0.28;0.28;;;;;;;7.45;100.00;99119.47;5032544;28;20057;-78
2021/05/05 09:38:11;;;;;;;0.30;0.30;;;;;;;7.36;100.00;99129.84;5055901;28;20064;-74
2021/05/05 09:41:29;;;;;;;0.30;0.30;;;;;;;7.28;100.00;99128.66;5033645;28;20053;-76
2021/05/05 09:44:54;;;;;;;0.38;0.38;;;;;;;7.16;100.00;99133.19;5033121;28;20048;-77
2021/05/05 09:48:00;;;;;;;0.20;0.20;;;;;;;7.09;100.00;99138.28;5033175;28;20056;-77
2021/05/05 09:51:03;;;;;;;0.30;0.30;;;;;;;6.97;100.00;99148.38;5036671;28;20053;-74
2021/05/05 09:54:07;;;;;;;0.30;0.30;;;;;;;6.75;100.00;99158.91;5035538;28;20397;-76
2021/05/05 09:57:27;;;;;;;0.30;0.30;;;;;;;6.49;100.00;99166.03;5032206;28;20052;-76
2021/05/05 10:00:30;;;;;;;0.52;0.52;;;;;;;6.45;100.00;99165.44;5031730;28;20393;-76
2021/05/05 10:03:38;;;;;;;0.40;0.40;;;;;;;6.74;100.00;99171.19;5032983;28;20060;-79
2021/05/05 10:06:41;;;;;;;0.20;0.20;;;;;;;7.01;100.00;99182.19;5032210;28;20052;-78
2021/05/05 10:09:44;;;;;;;0.30;0.30;;;;;;;7.00;100.00;99196.47;5032770;28;20056;-77
2021/05/05 10:12:49;;;;;;;0.20;0.20;;;;;;;6.84;100.00;99200.38;5032716;28;20052;-76
2021/05/05 10:15:52;;;;;;;0.47;0.47;;;;;;;6.68;100.00;99193.19;5032954;28;20064;-76
2021/05/05 10:18:57;;;;;;;0.38;0.38;;;;;;;6.42;100.00;99194.00;5020964;28;20413;-76
2021/05/05 10:22:03;;;;;;;0.30;0.30;;;;;;;6.05;100.00;99196.81;5032829;28;20045;-77
2021/05/05 10:25:16;;;;;;;0.50;0.50;;;;;;;5.74;100.00;99196.13;5032856;28;20068;-75
2021/05/05 10:28:20;;;;;;;0.40;0.40;;;;;;;5.65;100.00;99198.88;5032784;28;20048;-75
2021/05/05 10:31:27;;;;;;;0.60;0.60;;;;;;;5.77;100.00;99197.22;5032775;28;20049;-76
2021/05/05 10:34:31;;;;;;;0.50;0.50;;;;;;;5.83;100.00;99204.44;5032038;28;20052;-75
2021/05/05 10:37:40;;;;;;;0.50;0.50;;;;;;;5.93;100.00;99213.56;5033015;28;20064;-75
2021/05/05 10:40:44;;;;;;;0.52;0.52;;;;;;;6.21;100.00;99215.09;5032681;28;20049;-75
2021/05/05 10:43:50;;;;;;;0.43;0.43;;;;;;;6.83;100.00;99215.44;5032588;28;20048;-74
2021/05/05 10:47:10;;;;;;;0.47;0.47;;;;;;;7.31;100.00;99222.66;5032839;28;20504;-74
2021/05/05 10:50:15;;;;;;;0.30;0.30;;;;;;;7.19;100.00;99220.84;5032205;28;20056;-74
2021/05/05 10:53:21;;;;;;;0.30;0.30;;;;;;;6.84;100.00;99217.00;5054827;28;20497;-76
2021/05/05 10:56:30;;;;;;;0.60;0.60;;;;;;;6.66;100.00;99244.69;5031730;28;20374;-74
2021/05/05 11:00:08;;;;;;;0.50;0.50;;;;;;;6.26;100.00;99236.56;5032106;28;20058;-75
2021/05/05 11:03:12;;;;;;;0.40;0.40;;;;;;;5.79;100.00;99233.44;5032652;28;20053;-75
2021/05/05 11:06:35;;;;;;;0.60;0.60;;;;;;;5.65;100.00;99223.75;5032535;28;20052;-76
2021/05/05 11:09:40;;;;;;;0.68;0.68;;;;;;;5.73;100.00;99213.94;5032496;28;20044;-75
2021/05/05 11:12:44;;;;;;;0.50;0.50;;;;;;;5.93;100.00;99202.50;5054774;28;20045;-74
2021/05/05 11:15:47;;;;;;;0.50;0.50;;;;;;;6.07;100.00;99205.41;5031373;28;20060;-75
2021/05/05 11:18:51;;;;;;;0.55;0.55;;;;;;;6.36;100.00;99196.63;5034324;28;20060;-74
2021/05/05 11:21:55;;;;;;;0.60;0.60;;;;;;;6.81;100.00;99201.31;5035986;28;20040;-74
2021/05/05 11:24:58;;;;;;;0.40;0.40;;;;;;;7.36;100.00;99197.06;5036177;28;20390;-75
2021/05/05 11:28:02;;;;;;;0.40;0.40;;;;;;;7.75;100.00;99194.38;5035943;28;20052;-75
2021/05/05 11:31:06;;;;;;;0.30;0.30;;;;;;;7.83;100.00;99185.25;5035817;28;20052;-76
2021/05/05 11:34:10;;;;;;;0.30;0.30;;;;;;;7.69;100.00;99185.94;5035974;28;20056;-75
2021/05/05 11:37:25;;;;;;;0.20;0.20;;;;;;;7.57;100.00;99190.50;5035718;28;20495;-74
2021/05/05 11:40:29;;;;;;;0.32;0.32;;;;;;;7.88;100.00;99192.13;5035869;28;20057;-74
2021/05/05 11:43:32;;;;;;;0.40;0.40;;;;;;;8.54;100.00;99184.34;5034887;28;20052;-75
2021/05/05 11:46:36;;;;;;;0.20;0.20;;;;;;;8.90;100.00;99181.19;5035690;28;20049;-74
2021/05/05 11:49:44;;;;;;;0.10;0.10;;;;;;;9.40;100.00;99171.56;5035704;28;20409;-74
2021/05/05 11:52:50;;;;;;;0.20;0.20;;;;;;;9.64;100.00;99176.94;5035248;28;20056;-74
2021/05/05 11:55:54;;;;;;;0.10;0.10;;;;;;;9.81;100.00;99169.63;5033930;28;20052;-75
2021/05/05 11:59:02;;;;;;;0.10;0.10;;;;;;;10.17;100.00;99171.84;5034807;28;20044;-75
2021/05/05 12:02:07;;;;;;;0.10;0.10;;;;;;;10.23;100.00;99167.09;5035006;28;20052;-77
2021/05/05 12:05:29;;;;;;;0.17;0.17;;;;;;;10.19;100.00;99166.53;5035177;28;20052;-76
2021/05/05 12:08:33;;;;;;;0.10;0.10;;;;;;;10.25;100.00;99172.16;5035037;28;20060;-75
2021/05/05 12:11:37;;;;;;;0.10;0.10;;;;;;;10.45;100.00;99167.31;5035203;28;20045;-74
2021/05/05 12:14:42;;;;;;;0.10;0.10;;;;;;;10.51;100.00;99173.69;5034303;28;20073;-76
2021/05/05 12:17:52;;;;;;;0.10;0.10;;;;;;;10.37;100.00;99177.34;5034411;28;20509;-75
2021/05/05 12:21:16;;;;;;;0.10;0.10;;;;;;;10.12;100.00;99192.00;5034152;28;20049;-77
2021/05/05 12:24:20;;;;;;;0.10;0.10;;;;;;;9.54;100.00;99195.03;5034416;28;20049;-74
2021/05/05 12:27:23;;;;;;;0.10;0.10;;;;;;;9.18;100.00;99191.47;5034105;28;20052;-74
2021/05/05 12:30:44;;;;;;;0.20;0.20;;;;;;;9.05;100.00;99196.56;5034107;28;20052;-76
2021/05/05 12:33:49;;;;;;;0.10;0.10;;;;;;;9.00;100.00;99196.50;5033805;28;20052;-76
2021/05/05 12:36:55;;;;;;;0.10;0.10;;;;;;;8.84;100.00;99194.19;5034629;28;20052;-75
2021/05/05 12:39:58;;;;;;;0.20;0.20;;;;;;;8.74;100.00;99201.88;5033567;28;20044;-76
2021/05/05 12:43:20;;;;;;;0.10;0.10;;;;;;;8.83;100.00;99210.09;5034556;28;20382;-75
2021/05/05 12:46:55;;;;;;;0.10;0.10;;;;;;;8.94;100.00;99215.06;5056733;28;20049;-75
2021/05/05 12:49:59;;;;;;;0.20;0.20;;;;;;;9.07;100.00;99219.06;5034298;28;20048;-74
2021/05/05 12:53:05;;;;;;;0.10;0.10;;;;;;;9.22;100.00;99224.63;5034489;28;20056;-75
2021/05/05 12:56:08;;;;;;;0.10;0.10;;;;;;;8.96;100.00;99234.81;5033166;28;20057;-75
2021/05/05 12:59:14;;;;;;;0.20;0.20;;;;;;;8.51;100.00;99244.31;5034298;28;20056;-74
2021/05/05 13:02:25;;;;;;;0.10;0.10;;;;;;;7.97;100.00;99266.94;5034342;28;20493;-76
2021/05/05 13:05:29;;;;;;;0.20;0.20;;;;;;;7.27;100.00;99302.38;5033270;28;20048;-75
2021/05/05 13:08:43;;;;;;;0.40;0.40;;;;;;;6.21;100.00;99314.63;5034128;28;20212;-76
2021/05/05 13:12:10;;;;;;;0.30;0.30;;;;;;;5.10;100.00;99318.63;5033969;28;20056;-78
2021/05/05 13:15:57;;;;;;;0.57;0.57;;;;;;;4.19;100.00;99306.94;5033851;28;20371;-78
2021/05/05 13:19:16;;;;;;;0.63;0.63;;;;;;;3.69;100.00;99304.28;5033770;28;20109;-77
2021/05/05 13:26:31;;;;;;;1.10;1.10;;;;;;;3.50;100.00;99281.31;5034855;28;20064;-75
2021/05/05 13:29:42;;;;;;;0.80;0.80;;;;;;;3.81;100.00;99284.22;5035038;28;20056;-78
2021/05/05 13:32:59;;;;;;;0.93;0.93;;;;;;;4.15;100.00;99281.50;5034949;28;20040;-78
2021/05/05 13:36:02;;;;;;;1.00;1.00;;;;;;;4.35;100.00;99278.44;5033676;28;20112;-74
2021/05/05 13:39:06;;;;;;;0.70;0.70;;;;;;;4.49;100.00;99278.72;5036445;28;20378;-77
2021/05/05 13:42:11;;;;;;;0.90;0.90;;;;;;;4.74;100.00;99274.28;5050807;28;20056;-74
2021/05/05 13:45:16;;;;;;;0.77;0.77;;;;;;;5.01;100.00;99269.69;5052390;28;20111;-74
2021/05/05 13:51:29;;;;;;;3.63;0.95;;;;;;;5.48;100.00;99268.66;5053136;28;20409;-75
2021/05/05 13:54:33;;;;;;;0.55;0.55;;;;;;;5.65;100.00;99267.94;5052964;28;20069;-73
2021/05/05 13:57:36;;;;;;;0.52;0.52;;;;;;;5.74;100.00;99259.69;5054076;28;20044;-76
2021/05/05 14:00:40;;;;;;;0.43;0.43;;;;;;;5.73;100.00;99249.88;5056502;28;20052;-76
2021/05/05 14:03:45;;;;;;;0.55;0.55;;;;;;;5.77;100.00;99247.72;5055020;28;20048;-75
2021/05/05 14:06:49;;;;;;;0.50;0.50;;;;;;;5.89;100.00;99244.06;5053114;28;20055;-74
2021/05/05 14:09:53;;;;;;;0.40;0.40;;;;;;;6.08;100.00;99240.13;5052294;28;20051;-76
2021/05/05 14:12:56;;;;;;;0.50;0.50;;;;;;;6.16;100.00;99239.81;5052902;28;20056;-74
2021/05/05 14:16:01;;;;;;;0.60;0.60;;;;;;;6.32;100.00;99240.28;5052922;28;20052;-75
2021/05/05 14:19:04;;;;;;;0.45;0.45;;;;;;;6.79;100.00;99245.28;5052338;28;20087;-74
2021/05/05 14:22:08;;;;;;;0.40;0.40;;;;;;;6.85;100.00;99246.97;5051943;28;20049;-74
2021/05/05 14:25:11;;;;;;;0.20;0.20;;;;;;;6.60;100.00;99252.06;5052841;28;20052;-75
2021/05/05 14:28:15;;;;;;;0.40;0.40;;;;;;;6.31;100.00;99249.00;5052298;28;20048;-73
2021/05/05 14:31:18;;;;;;;0.40;0.40;;;;;;;6.25;100.00;99226.75;5052792;28;20044;-75
2021/05/05 14:34:22;;;;;;;0.50;0.50;;;;;;;6.19;100.00;99212.03;5051930;28;20042;-75
2021/05/05 14:37:25;;;;;;;0.65;0.65;;;;;;;6.23;100.00;99209.88;5052812;28;20044;-76
2021/05/05 14:40:33;;;;;;;0.45;0.45;;;;;;;6.33;100.00;99205.06;5052581;28;20044;-75
2021/05/05 14:50:11;;;;;;;0.50;0.50;;;;;;;6.98;100.00;99198.94;5052274;28;20044;-74
2021/05/05 14:53:18;;;;;;;0.20;0.20;;;;;;;7.56;100.00;99188.94;5055501;28;20044;-73
2021/05/05 14:56:22;;;;;;;0.30;0.30;;;;;;;7.72;100.00;99195.31;5055588;28;20044;-75